Alice International Airport Alice US
ICAO: KALI
IATA: ALI
Category: Medium
Scheduled Services: No

Elevation: 178 ft
TransAlt. 18000 ft.

Airport Communications:
KINGSVILLE APP:119.9
ASOS:119.225
KINGSVILLE DEP:119.9
SAN ANGELO RDO:122.6
CTAF/UNICOM:123

KALI Zoom In..

Runways:

(A) RW 13 length 5997 ft width 100 ft
LOC 109.30 / hdg 128

(B) RW 17 length 4490 ft width 100 ft
LOC 109.30 / hdg 173

(C) RW 31 length 5997 ft width 100 ft
LOC 109.30 / hdg 308

(D) RW 35 length 4490 ft width 100 ft
LOC 109.30 / hdg 353

Location; KALI
Day. 17 / Time. 06.53 Zulu
* Altimeter: 30.04
* Temperature: 24° c. 75.2°f.
* Wind from: 140° Speed 06 kn.
Dewpoint: 23° c.
Visibility: 10 Statute Miles.
Clouds: Few 1700 ft.

KALI 170653Z AUTO 14006KT 10SM FEW017 24/23 A3004 RMK AO2 SLP170 T02390228


Wind From 140°
Speed 06 kn.

 
 
jpsmedia.com for Web Design worldairports.se 2018   terms of use